Flight Track Log - Related Links

Times and Time Zones

All times are in EDT time to prevent confusion due to time zone crossing. See the CHH7104 flight status page for this flight to view local times or setup timezone preferences in your user account.

Time Position Orientation Groundspeed Altitude Reporting Facility
EDT Latitude Longitude Course Direction KTS MPH feet Rate Location/Type
Sun 10:36:00 PM 44.4872 129.4301 250° West  Level Estimated
Sun 10:37:00 PM 44.4502 129.2914 250° West  Level Estimated
Sun 10:38:00 PM 44.4131 129.1528 249° West  Level Estimated
Sun 10:39:00 PM 44.3757 129.0145 249° West  Level Estimated
Sun 10:40:00 PM 44.3382 128.8763 249° West  Level Estimated
Sun 10:41:00 PM 44.3005 128.7383 249° West  Level Estimated
Sun 10:42:00 PM 44.2627 128.6004 249° West  Level Estimated
Sun 10:43:00 PM 44.2247 128.4628 249° West  Level Estimated
Sun 10:44:00 PM 44.1865 128.3253 249° West  Level Estimated
Sun 10:45:00 PM 44.1482 128.1880 249° West  Level Estimated
Sun 10:46:00 PM 44.1097 128.0509 249° West  Level Estimated
Sun 10:47:00 PM 44.0710 127.9139 249° West  Level Estimated
Sun 10:48:00 PM 44.0322 127.7771 248° West  Level Estimated
Sun 10:49:00 PM 43.9932 127.6405 248° West  Level Estimated
Sun 10:50:00 PM 43.9541 127.5041 248° West  Level Estimated
Sun 10:51:00 PM 43.9147 127.3679 248° West  Level Estimated
Sun 10:52:00 PM 43.8819 127.2545 248° West  Level Estimated
Sun 10:53:00 PM 43.8489 127.1413 248° West  Level Estimated
Sun 10:54:00 PM 43.8158 127.0281 248° West  Level Estimated
Sun 10:55:00 PM 43.7825 126.9151 248° West  Level Estimated
Sun 10:56:00 PM 43.7492 126.8023 248° West  Level Estimated
Sun 10:57:00 PM 43.7158 126.6895 248° West  Level Estimated
Sun 10:58:00 PM 43.6822 126.5769 248° West  Level Estimated
Sun 10:59:00 PM 43.6486 126.4644 248° West  Level Estimated
Sun 11:00:00 PM 43.6148 126.3520 247° West  Level Estimated
Sun 11:01:00 PM 43.5809 126.2397 247° West  Level Estimated
Sun 11:02:00 PM 43.5469 126.1276 247° West  Level Estimated
Sun 11:03:00 PM 43.5128 126.0156 247° West  Level Estimated
Sun 11:04:00 PM 43.4786 125.9037 247° West  Level Estimated
Sun 11:05:00 PM 43.4443 125.7920 247° West  Level Estimated
Sun 11:06:00 PM 43.4099 125.6804 247° West  Level Estimated
Sun 11:07:00 PM 43.3753 125.5689 247° West  Level Estimated
Sun 11:08:00 PM 43.3407 125.4575 247° West  Level Estimated
Sun 11:09:00 PM 43.3059 125.3463 247° West  Level Estimated
Sun 11:10:00 PM 43.2711 125.2352 247° West  Level Estimated
Sun 11:11:00 PM 43.2361 125.1242 247° West  Level Estimated
Sun 11:12:00 PM 43.2010 125.0133 247° West  Level Estimated
Sun 11:13:00 PM 43.1658 124.9026 246° West  Level Estimated
Sun 11:14:00 PM 43.1305 124.7920 246° West  Level Estimated
Sun 11:15:00 PM 43.0951 124.6815 246° West  Level Estimated
Sun 11:16:00 PM 43.0596 124.5712 246° West  Level Estimated
Sun 11:17:00 PM 43.0240 124.4610 246° West  Level Estimated
Sun 11:18:00 PM 42.9883 124.3509 246° West  Level Estimated
Sun 11:19:00 PM 42.9525 124.2409 246° West  Level Estimated
Sun 11:20:00 PM 42.9166 124.1311 246° West  Level Estimated
Sun 11:21:00 PM 42.8806 124.0214 246° West  Level Estimated
Sun 11:22:00 PM 42.8444 123.9118 246° West  Level Estimated
Sun 11:23:00 PM 42.8082 123.8024 246° West  Level Estimated
Sun 11:24:00 PM 42.7718 123.6930 246° West  Level Estimated
Sun 11:25:00 PM 42.7354 123.5838 246° West  Level Estimated
Sun 11:26:00 PM 42.6988 123.4748 246° West  Level Estimated
Sun 11:27:00 PM 42.6622 123.3659 245° Southwest  Level Estimated
Sun 11:28:00 PM 42.6254 123.2571 245° Southwest  Level Estimated
Sun 11:29:00 PM 42.5886 123.1484 245° Southwest  Level Estimated
Sun 11:30:00 PM 42.5516 123.0398 245° Southwest  Level Estimated
Sun 11:31:00 PM 42.5145 122.9314 245° Southwest  Level Estimated
Sun 11:32:00 PM 42.4774 122.8231 245° Southwest  Level Estimated
Sun 11:33:00 PM 42.4401 122.7150 245° Southwest  Level Estimated
Sun 11:34:00 PM 42.4027 122.6069 245° Southwest  Level Estimated
Sun 11:35:00 PM 42.3653 122.4990 245° Southwest  Level Estimated
Sun 11:36:00 PM 42.3277 122.3913 245° Southwest  Level Estimated
Sun 11:37:00 PM 42.2900 122.2836 245° Southwest  Level Estimated
Sun 11:38:00 PM 42.2523 122.1761 245° Southwest  Level Estimated
Sun 11:39:00 PM 42.2144 122.0687 245° Southwest  Level Estimated
Sun 11:40:00 PM 42.1764 121.9614 244° Southwest  Level Estimated
Sun 11:41:00 PM 42.1384 121.8543 244° Southwest  Level Estimated
Sun 11:42:00 PM 42.1002 121.7473 244° Southwest  Level Estimated
Sun 11:43:00 PM 42.0619 121.6404 244° Southwest  Level Estimated
Sun 11:44:00 PM 42.0235 121.5337 244° Southwest  Level Estimated
Sun 11:45:00 PM 41.9851 121.4271 244° Southwest  Level Estimated
Sun 11:46:00 PM 41.9465 121.3206 244° Southwest  Level Estimated
Sun 11:47:00 PM 41.9078 121.2142 244° Southwest  Level Estimated
Sun 11:48:00 PM 41.8691 121.1080 244° Southwest  Level Estimated
Sun 11:49:00 PM 41.8302 121.0019 244° Southwest  Level Estimated
Sun 11:50:00 PM 41.7912 120.8959 244° Southwest  Level Estimated
Sun 11:51:00 PM 41.7522 120.7901 244° Southwest  Level Estimated
Sun 11:52:00 PM 41.7130 120.6844 244° Southwest  Level Estimated
Sun 11:53:00 PM 41.6738 120.5788 244° Southwest  Level Estimated
Sun 11:54:00 PM 41.6344 120.4734 243° Southwest  Level Estimated
Sun 11:55:00 PM 41.5950 120.3680 243° Southwest  Level Estimated
Sun 11:56:00 PM 41.5554 120.2628 243° Southwest  Level Estimated
Sun 11:57:00 PM 41.5158 120.1578 243° Southwest  Level Estimated
Sun 11:58:00 PM 41.4761 120.0528 243° Southwest  Level Estimated
Sun 11:59:00 PM 41.4362 119.9480 243° Southwest  Level Estimated
Mon 12:00:00 AM 41.3963 119.8433 243° Southwest  Level Estimated
Mon 12:01:00 AM 41.3563 119.7388 243° Southwest  Level Estimated
Mon 12:02:00 AM 41.3162 119.6344 243° Southwest  Level Estimated
Mon 12:03:00 AM 41.2760 119.5301 243° Southwest  Level Estimated
Mon 12:04:00 AM 41.2357 119.4259 243° Southwest  Level Estimated
Mon 12:05:00 AM 41.1953 119.3218 243° Southwest  Level Estimated
Mon 12:06:00 AM 41.1548 119.2179 243° Southwest  Level Estimated
Mon 12:07:00 AM 41.1142 119.1142 243° Southwest  Level Estimated
Mon 12:08:00 AM 41.0736 119.0105 243° Southwest  Level Estimated
Mon 12:09:00 AM 41.0328 118.9070 242° Southwest  Level Estimated
Mon 12:10:00 AM 40.9919 118.8036 242° Southwest  Level Estimated
Mon 12:11:00 AM 40.9510 118.7003 242° Southwest  Level Estimated
Mon 12:12:00 AM 40.9099 118.5972 242° Southwest  Level Estimated
Mon 12:13:00 AM 40.8688 118.4941 242° Southwest  Level Estimated
Mon 12:14:00 AM 40.8276 118.3913 242° Southwest  Level Estimated
Mon 12:15:00 AM 40.7863 118.2885 242° Southwest  Level Estimated
Mon 12:16:00 AM 40.7448 118.1859 242° Southwest  Level Estimated
Mon 12:17:00 AM 40.7033 118.0834 242° Southwest  Level Estimated
Mon 12:18:00 AM 40.6618 117.9810 242° Southwest  Level Estimated
Mon 12:19:00 AM 40.6201 117.8788 242° Southwest  Level Estimated
Mon 12:20:00 AM 40.5783 117.7766 242° Southwest  Level Estimated
Mon 12:21:00 AM 40.5364 117.6747 242° Southwest  Level Estimated
Mon 12:22:00 AM 40.4945 117.5728 242° Southwest  Level Estimated
Mon 12:23:00 AM 40.4524 117.4710 242° Southwest  Level Estimated
Mon 12:24:00 AM 40.4103 117.3694 241° Southwest  Level Estimated
Mon 12:25:00 AM 40.3681 117.2680 241° Southwest  Level Estimated
Mon 12:26:00 AM 40.3258 117.1666 241° Southwest  Level Estimated
Mon 12:27:00 AM 40.2834 117.0654 241° Southwest  Level Estimated
Mon 12:28:00 AM 40.2409 116.9643 241° Southwest  Level Estimated
Mon 12:29:00 AM 40.1984 116.8633 241° Southwest  Level Estimated
Mon 12:30:00 AM 40.1557 116.7625 241° Southwest  Level Estimated
Mon 12:31:00 AM 40.1130 116.6617 241° Southwest  Level Estimated
Mon 12:32:00 AM 40.0801 116.5846 241° Southwest  Level Estimated
Mon 12:33:00 AM 40.0801 116.5846 288° West  Level Estimated
Mon 12:34:00 AM 40.0801 116.5846 288° West  Level Estimated
Mon 12:35:00 AM 40.0801 116.5846 288° West  Level Estimated
Mon 12:36:00 AM 40.0801 116.5846 288° West  Level Estimated
Mon 12:37:00 AM 40.0801 116.5846 288° West  Level Estimated
Mon 12:38:00 AM 40.0801 116.5846 288° West  Level Estimated
Mon 12:39:00 AM 40.0801 116.5846 288° West  Level Estimated
Mon 12:40:00 AM 40.0801 116.5846 288° West  Level Estimated
Mon 12:41:00 AM 40.0801 116.5846 288° West  Level Estimated
Mon 12:42:00 AM 40.0801 116.5846 288° West  Level Estimated
Mon 12:43:00 AM 40.0801 116.5846 288° West  Level Estimated
Mon 12:44:00 AM 40.0801 116.5846 288° West  Level Estimated
Mon 12:45:00 AM 40.0801 116.5846 288° West  Level Estimated
Mon 12:46:00 AM 40.0801 116.5846 288° West  Level Estimated
Mon 12:47:00 AM 40.0801 116.5846 288° West  Level Estimated
Mon 12:48:00 AM 40.0801 116.5846 288° West  Level Estimated
Mon 12:49:00 AM 40.0801 116.5846 288° West  Level Estimated
Mon 12:50:00 AM 40.0801 116.5846 288° West  Level Estimated
Mon 12:51:00 AM 40.0801 116.5846 288° West  Level Estimated
Mon 12:52:00 AM 40.0801 116.5846 288° West  Level Estimated
Mon 12:53:00 AM 40.0801 116.5846 288° West  Level Estimated

Login

Don't have an account? Register now (free) for customized features, flight alerts, and more!